Time;durP1;ratioP1;P1;durP2;ratioP2;P2;SDS_P1;SDS_P2;PMS_P1;PMS_P2;Temp;Humidity;BMP_temperature;BMP_pressure;BME280_temperature;BME280_humidity;BME280_pressure;Samples;Min_cycle;Max_cycle;Signal;HPM_P1;HPM_P2
2023/07/16 00:00:30;;;;;;;;;;;16.20;99.90;;;;;;5093311;28;19924;-76
2023/07/16 00:02:56;;;;;;;;;;;16.20;99.90;;;;;;5093896;28;19919;-78
2023/07/16 00:05:21;;;;;;;;;;;16.20;99.90;;;;;;5110616;28;19920;-78
2023/07/16 00:07:47;;;;;;;;;;;16.20;99.90;;;;;;5094307;28;19924;-81
2023/07/16 00:10:13;;;;;;;;;;;16.20;99.90;;;;;;5076346;28;19924;-81
2023/07/16 00:12:38;;;;;;;;;;;16.10;99.90;;;;;;5110958;28;19924;-78
2023/07/16 00:15:06;;;;;;;;;;;16.10;99.90;;;;;;5111178;28;20357;-76
2023/07/16 00:17:32;;;;;;;;;;;16.10;99.90;;;;;;5077395;28;20289;-76
2023/07/16 00:19:58;;;;;;;;;;;16.10;99.90;;;;;;5093910;28;19932;-78
2023/07/16 00:22:23;;;;;;;;;;;16.00;99.90;;;;;;5093183;28;19992;-81
2023/07/16 00:24:49;;;;;;;;;;;16.00;99.90;;;;;;5110910;28;19961;-78
2023/07/16 00:27:14;;;;;;;;;;;16.00;99.90;;;;;;5077035;28;20255;-79
2023/07/16 00:29:40;;;;;;;;;;;16.10;99.90;;;;;;5093762;28;19927;-82
2023/07/16 00:32:06;;;;;;;;;;;16.00;99.90;;;;;;5093320;28;19920;-77
2023/07/16 00:34:31;;;;;;;;;;;16.00;99.90;;;;;;5110248;28;19943;-79
2023/07/16 00:37:01;;;;;;;;;;;16.00;99.90;;;;;;5093824;28;19954;-79
2023/07/16 00:39:30;;;;;;;;;;;15.90;99.90;;;;;;5094115;28;19920;-81
2023/07/16 00:41:56;;;;;;;;;;;15.90;99.90;;;;;;5110523;28;19928;-77
2023/07/16 00:44:22;;;;;;;;;;;15.90;99.90;;;;;;5110571;28;19927;-80
2023/07/16 00:46:48;;;;;;;;;;;15.90;99.90;;;;;;5111464;28;19924;-77
2023/07/16 00:49:13;;;;;;;;;;;15.90;99.90;;;;;;5114431;28;20035;-77
2023/07/16 00:51:39;;;;;;;;;;;15.90;99.90;;;;;;5114760;28;19924;-82
2023/07/16 00:54:05;;;;;;;;;;;16.00;99.90;;;;;;5097479;28;19927;-80
2023/07/16 00:56:31;;;;;;;;;;;15.90;99.90;;;;;;5114127;28;20421;-77
2023/07/16 00:58:57;;;;;;;;;;;15.90;99.90;;;;;;5097012;28;20010;-77
2023/07/16 01:01:22;;;;;;;;;;;15.90;99.90;;;;;;5079522;28;20023;-81
2023/07/16 01:03:48;;;;;;;;;;;15.90;99.90;;;;;;5114693;28;20276;-79
2023/07/16 01:06:16;;;;;;;;;;;15.90;99.90;;;;;;5096862;28;19924;-81
2023/07/16 01:08:45;;;;;;;;;;;15.90;99.90;;;;;;5096727;28;19946;-76
2023/07/16 01:11:11;;;;;;;;;;;15.90;99.90;;;;;;5096915;28;20019;-79
2023/07/16 01:13:36;;;;;;;;;;;15.90;99.90;;;;;;5113828;28;20250;-81
2023/07/16 01:16:02;;;;;;;;;;;15.90;99.90;;;;;;5113580;28;19930;-81
2023/07/16 01:18:28;;;;;;;;;;;16.00;99.90;;;;;;5095513;28;19930;-80
2023/07/16 01:20:53;;;;;;;;;;;16.00;99.90;;;;;;5076502;28;19924;-78
2023/07/16 01:23:38;;;;;;;;;;;16.00;99.90;;;;;;5075696;28;20429;-82
2023/07/16 01:26:07;;;;;;;;;;;16.00;99.90;;;;;;5093193;28;19967;-83
2023/07/16 01:28:49;;;;;;;;;;;16.00;99.90;;;;;;5093148;28;19924;-82
2023/07/16 01:31:15;;;;;;;;;;;16.00;99.90;;;;;;5093546;28;19920;-79
2023/07/16 01:33:41;;;;;;;;;;;16.00;99.90;;;;;;5093209;28;20039;-82
2023/07/16 01:36:07;;;;;;;;;;;16.00;99.90;;;;;;5076431;28;19920;-79
2023/07/16 01:38:34;;;;;;;;;;;16.10;99.90;;;;;;5076268;28;19966;-82
2023/07/16 01:41:05;;;;;;;;;;;16.10;99.90;;;;;;5093164;28;19968;-78
2023/07/16 01:43:31;;;;;;;;;;;16.10;99.90;;;;;;5105982;28;20014;-80
2023/07/16 01:45:58;;;;;;;;;;;16.10;99.90;;;;;;5113694;28;19920;-79
2023/07/16 01:48:41;;;;;;;;;;;16.10;99.90;;;;;;5113492;28;19930;-81
2023/07/16 01:51:07;;;;;;;;;;;16.10;99.90;;;;;;5113822;28;19924;-77
2023/07/16 01:53:33;;;;;;;;;;;16.10;99.90;;;;;;5113740;28;19976;-79
2023/07/16 01:56:00;;;;;;;;;;;16.10;99.90;;;;;;5096606;28;20387;-76
2023/07/16 01:58:27;;;;;;;;;;;16.20;99.90;;;;;;5095866;28;20001;-81
2023/07/16 02:00:52;;;;;;;;;;;16.20;99.90;;;;;;5112577;28;19928;-80
2023/07/16 02:03:18;;;;;;;;;;;16.20;99.90;;;;;;5095915;28;19938;-80
2023/07/16 02:05:43;;;;;;;;;;;16.10;99.90;;;;;;5094552;28;20380;-79
2023/07/16 02:08:09;;;;;;;;;;;16.10;99.90;;;;;;5112264;28;19963;-78
2023/07/16 02:10:34;;;;;;;;;;;16.10;99.90;;;;;;5078745;28;19924;-81
2023/07/16 02:13:00;;;;;;;;;;;16.10;99.90;;;;;;5078830;28;20428;-78
2023/07/16 02:15:26;;;;;;;;;;;16.10;99.90;;;;;;5112500;28;19919;-80
2023/07/16 02:17:51;;;;;;;;;;;16.10;99.90;;;;;;5112553;28;20384;-78
2023/07/16 02:20:17;;;;;;;;;;;16.00;99.90;;;;;;5112677;28;19930;-75
2023/07/16 02:22:42;;;;;;;;;;;16.00;99.90;;;;;;5112672;28;19924;-81
2023/07/16 02:25:08;;;;;;;;;;;16.00;99.90;;;;;;5112593;28;19923;-79
2023/07/16 02:27:33;;;;;;;;;;;16.00;99.90;;;;;;5112054;28;19931;-78
2023/07/16 02:29:59;;;;;;;;;;;16.00;99.90;;;;;;5112025;28;19959;-81
2023/07/16 02:32:25;;;;;;;;;;;16.00;99.90;;;;;;5078527;28;20344;-81
2023/07/16 02:34:50;;;;;;;;;;;16.00;99.90;;;;;;5112109;28;20453;-80
2023/07/16 02:37:16;;;;;;;;;;;16.00;99.90;;;;;;5112493;28;20340;-83
2023/07/16 02:39:42;;;;;;;;;;;16.00;99.90;;;;;;5078083;28;19920;-80
2023/07/16 02:42:08;;;;;;;;;;;16.00;99.90;;;;;;5111773;28;20567;-79
2023/07/16 02:44:34;;;;;;;;;;;16.00;99.90;;;;;;5112101;28;20226;-79
2023/07/16 02:46:59;;;;;;;;;;;16.00;99.90;;;;;;5112556;28;19941;-77
2023/07/16 02:49:25;;;;;;;;;;;16.00;99.90;;;;;;5078158;28;20288;-80
2023/07/16 02:51:50;;;;;;;;;;;16.10;99.90;;;;;;5078041;28;19919;-78
2023/07/16 02:54:16;;;;;;;;;;;16.10;99.90;;;;;;5094965;28;19920;-77
2023/07/16 02:56:41;;;;;;;;;;;16.10;99.90;;;;;;5112522;28;19927;-81
2023/07/16 02:59:07;;;;;;;;;;;16.10;99.90;;;;;;5112552;28;20789;-76
2023/07/16 03:01:33;;;;;;;;;;;16.10;99.90;;;;;;5094662;28;19927;-82
2023/07/16 03:04:04;;;;;;;;;;;16.00;99.90;;;;;;5095393;28;19942;-79
2023/07/16 03:06:30;;;;;;;;;;;16.00;99.90;;;;;;5094528;28;20408;-82
2023/07/16 03:08:56;;;;;;;;;;;16.10;99.90;;;;;;5111871;28;19926;-80
2023/07/16 03:11:22;;;;;;;;;;;16.00;99.90;;;;;;5111426;28;20566;-79
2023/07/16 03:13:47;;;;;;;;;;;16.00;99.90;;;;;;5111338;28;19928;-81
2023/07/16 03:16:13;;;;;;;;;;;16.00;99.90;;;;;;5094809;28;19923;-79
2023/07/16 03:18:38;;;;;;;;;;;16.00;99.90;;;;;;5111501;28;19924;-79
2023/07/16 03:21:04;;;;;;;;;;;16.00;99.90;;;;;;5094506;28;19923;-80
2023/07/16 03:23:30;;;;;;;;;;;16.00;99.90;;;;;;5077176;28;19926;-77
2023/07/16 03:25:55;;;;;;;;;;;16.00;99.90;;;;;;5110527;28;20026;-82
2023/07/16 03:28:24;;;;;;;;;;;16.00;99.90;;;;;;5110683;28;19923;-79
2023/07/16 03:30:50;;;;;;;;;;;16.00;99.90;;;;;;5110141;28;20156;-81
2023/07/16 03:33:16;;;;;;;;;;;16.00;99.90;;;;;;5094574;28;20010;-80
2023/07/16 03:35:43;;;;;;;;;;;16.00;99.90;;;;;;5111329;28;19927;-80
2023/07/16 03:38:09;;;;;;;;;;;16.00;99.90;;;;;;5111732;28;20325;-79
2023/07/16 03:40:35;;;;;;;;;;;16.00;99.90;;;;;;5093843;28;19924;-77
2023/07/16 03:43:01;;;;;;;;;;;16.00;99.90;;;;;;5111337;28;19988;-79
2023/07/16 03:45:26;;;;;;;;;;;16.00;99.90;;;;;;5111385;28;19981;-76
2023/07/16 03:47:52;;;;;;;;;;;16.00;99.90;;;;;;5110840;28;20416;-81
2023/07/16 03:50:17;;;;;;;;;;;16.00;99.90;;;;;;5094242;28;19980;-80
2023/07/16 03:52:43;;;;;;;;;;;16.00;99.90;;;;;;5110951;28;19923;-80
2023/07/16 03:55:09;;;;;;;;;;;16.00;99.90;;;;;;5112058;28;19923;-80
2023/07/16 03:57:35;;;;;;;;;;;16.00;99.90;;;;;;5110715;28;19924;-80
2023/07/16 04:00:02;;;;;;;;;;;16.00;99.90;;;;;;5113201;28;19920;-77
2023/07/16 04:02:27;;;;;;;;;;;16.10;99.90;;;;;;5110986;28;19953;-77
2023/07/16 04:04:53;;;;;;;;;;;16.10;99.90;;;;;;5093714;28;20513;-78
2023/07/16 04:07:18;;;;;;;;;;;16.10;99.90;;;;;;5094041;28;19924;-78
2023/07/16 04:09:50;;;;;;;;;;;16.10;99.90;;;;;;5110830;28;19949;-81
2023/07/16 04:12:16;;;;;;;;;;;16.00;99.90;;;;;;5110883;28;20389;-79
2023/07/16 04:14:41;;;;;;;;;;;16.10;99.90;;;;;;5110371;28;19974;-79
2023/07/16 04:17:07;;;;;;;;;;;16.10;99.90;;;;;;5094152;28;19919;-79
2023/07/16 04:19:33;;;;;;;;;;;16.10;99.90;;;;;;5094013;28;20006;-81
2023/07/16 04:21:58;;;;;;;;;;;16.20;99.90;;;;;;5093594;28;19924;-82
2023/07/16 04:24:24;;;;;;;;;;;16.20;99.90;;;;;;5115688;28;19928;-78
2023/07/16 04:26:50;;;;;;;;;;;16.20;99.90;;;;;;5114579;28;19990;-80
2023/07/16 04:29:16;;;;;;;;;;;16.30;99.90;;;;;;5098345;28;19924;-80
2023/07/16 04:31:41;;;;;;;;;;;16.30;99.90;;;;;;5114028;28;19930;-80
2023/07/16 04:34:07;;;;;;;;;;;16.30;99.90;;;;;;5098438;28;19924;-78
2023/07/16 04:36:32;;;;;;;;;;;16.30;99.90;;;;;;5098444;28;19963;-76
2023/07/16 04:38:58;;;;;;;;;;;16.40;99.90;;;;;;5097494;28;19924;-80
2023/07/16 04:41:23;;;;;;;;;;;16.40;99.90;;;;;;5097571;28;19935;-82
2023/07/16 04:43:49;;;;;;;;;;;16.40;99.90;;;;;;5114222;28;19999;-77
2023/07/16 04:46:16;;;;;;;;;;;16.50;99.90;;;;;;5114316;28;19919;-82
2023/07/16 04:48:42;;;;;;;;;;;16.40;99.90;;;;;;5096940;28;19977;-77
2023/07/16 04:51:07;;;;;;;;;;;16.50;99.90;;;;;;5096897;28;19920;-81
2023/07/16 04:53:33;;;;;;;;;;;16.50;99.90;;;;;;5080615;28;20006;-77
2023/07/16 04:55:58;;;;;;;;;;;16.60;99.90;;;;;;5113974;28;19943;-79
2023/07/16 04:58:24;;;;;;;;;;;16.60;99.90;;;;;;5114245;28;19967;-82
2023/07/16 05:00:49;;;;;;;;;;;16.70;99.90;;;;;;5113556;28;19980;-78
2023/07/16 05:03:15;;;;;;;;;;;16.70;99.90;;;;;;5065055;28;19986;-76
2023/07/16 05:05:41;;;;;;;;;;;16.80;99.90;;;;;;5077065;28;20304;-80
2023/07/16 05:08:06;;;;;;;;;;;16.80;99.90;;;;;;5077835;28;19924;-80
2023/07/16 05:10:32;;;;;;;;;;;16.90;99.90;;;;;;5077877;28;19927;-78
2023/07/16 05:12:58;;;;;;;;;;;17.00;99.90;;;;;;5093253;28;19927;-78
2023/07/16 05:15:23;;;;;;;;;;;17.10;99.90;;;;;;5077026;28;19965;-82
2023/07/16 05:17:49;;;;;;;;;;;17.10;99.90;;;;;;5059422;28;19920;-80
2023/07/16 05:20:15;;;;;;;;;;;17.20;99.90;;;;;;5076903;28;20289;-78
2023/07/16 05:22:40;;;;;;;;;;;17.20;99.90;;;;;;5092981;28;19920;-81
2023/07/16 05:25:06;;;;;;;;;;;17.30;99.90;;;;;;5093591;28;19920;-81
2023/07/16 05:27:32;;;;;;;;;;;17.30;99.90;;;;;;5076338;28;20334;-77
2023/07/16 05:29:57;;;;;;;;;;;17.30;99.90;;;;;;5075654;28;19927;-78
2023/07/16 05:32:23;;;;;;;;;;;17.30;99.90;;;;;;5059878;28;19969;-80
2023/07/16 05:34:48;;;;;;;;;;;17.40;99.90;;;;;;5075707;28;20446;-78
2023/07/16 05:37:14;;;;;;;;;;;17.60;99.90;;;;;;5075914;28;19920;-78
2023/07/16 05:39:40;;;;;;;;;;;17.70;99.90;;;;;;5077758;28;19978;-76
2023/07/16 05:42:05;;;;;;;;;;;17.90;99.90;;;;;;5077955;28;19931;-81
2023/07/16 05:44:31;;;;;;;;;;;18.10;99.90;;;;;;5092726;28;20277;-80
2023/07/16 05:46:57;;;;;;;;;;;18.20;99.90;;;;;;5075513;28;19973;-78
2023/07/16 05:49:23;;;;;;;;;;;18.10;99.90;;;;;;5078371;28;20005;-84
2023/07/16 05:51:49;;;;;;;;;;;18.00;99.90;;;;;;5112521;28;19928;-81
2023/07/16 05:54:14;;;;;;;;;;;18.00;99.90;;;;;;5113617;28;19927;-77
2023/07/16 05:56:40;;;;;;;;;;;18.10;99.90;;;;;;5095995;28;19927;-78
2023/07/16 05:59:05;;;;;;;;;;;18.20;99.90;;;;;;5112166;28;19926;-79
2023/07/16 06:01:31;;;;;;;;;;;18.30;99.90;;;;;;5112623;28;19928;-81
2023/07/16 06:03:56;;;;;;;;;;;18.40;99.90;;;;;;5111965;28;19928;-80
2023/07/16 06:06:22;;;;;;;;;;;18.50;99.90;;;;;;5112662;28;19924;-77
2023/07/16 06:08:48;;;;;;;;;;;18.50;99.90;;;;;;5096217;28;20261;-78
2023/07/16 06:11:13;;;;;;;;;;;18.60;99.90;;;;;;5112935;28;19920;-81
2023/07/16 06:13:39;;;;;;;;;;;18.70;99.90;;;;;;5079011;28;20049;-81
2023/07/16 06:16:05;;;;;;;;;;;18.70;99.90;;;;;;5095379;28;19930;-79
2023/07/16 06:18:31;;;;;;;;;;;18.70;99.90;;;;;;5112511;28;19920;-78
2023/07/16 06:20:56;;;;;;;;;;;18.60;99.90;;;;;;5095205;28;19927;-76
2023/07/16 06:23:22;;;;;;;;;;;18.50;99.90;;;;;;5095576;28;20011;-80
2023/07/16 06:25:49;;;;;;;;;;;18.50;99.90;;;;;;5094910;28;20006;-79
2023/07/16 06:28:15;;;;;;;;;;;18.60;99.90;;;;;;5111832;28;19930;-80
2023/07/16 06:30:40;;;;;;;;;;;18.70;99.90;;;;;;5112396;28;20003;-76
2023/07/16 06:33:06;;;;;;;;;;;18.60;99.90;;;;;;5094839;28;19919;-77
2023/07/16 06:35:32;;;;;;;;;;;18.50;99.90;;;;;;5112243;28;19923;-77
2023/07/16 06:37:57;;;;;;;;;;;18.40;99.90;;;;;;5111955;28;19934;-81
2023/07/16 06:40:23;;;;;;;;;;;18.30;99.90;;;;;;5094749;28;20029;-78
2023/07/16 06:42:49;;;;;;;;;;;18.30;99.90;;;;;;5094266;28;20422;-79
2023/07/16 06:45:15;;;;;;;;;;;18.40;99.90;;;;;;5110982;28;19928;-78
2023/07/16 06:47:46;;;;;;;;;;;18.50;99.90;;;;;;5112122;28;19965;-77
2023/07/16 06:50:12;;;;;;;;;;;18.50;99.90;;;;;;5111534;28;20287;-77
2023/07/16 06:52:37;;;;;;;;;;;18.70;99.90;;;;;;5112088;28;20656;-79
2023/07/16 06:55:03;;;;;;;;;;;18.70;99.90;;;;;;5101449;28;19927;-80
2023/07/16 06:57:30;;;;;;;;;;;18.80;99.90;;;;;;5095671;28;19970;-77
2023/07/16 06:59:56;;;;;;;;;;;19.00;99.90;;;;;;5073579;28;19978;-80
2023/07/16 07:02:21;;;;;;;;;;;19.00;99.90;;;;;;5075041;28;19963;-76
2023/07/16 07:04:47;;;;;;;;;;;19.00;99.90;;;;;;5091512;28;19924;-84
2023/07/16 07:07:12;;;;;;;;;;;18.90;99.90;;;;;;5091447;28;20286;-77
2023/07/16 07:09:38;;;;;;;;;;;18.80;99.90;;;;;;5093579;28;20015;-80
2023/07/16 07:12:05;;;;;;;;;;;18.80;99.90;;;;;;5091178;28;19932;-77
2023/07/16 07:14:31;;;;;;;;;;;18.90;99.90;;;;;;5091663;28;20413;-79
2023/07/16 07:16:57;;;;;;;;;;;19.10;99.90;;;;;;5091121;28;20019;-78
2023/07/16 07:19:22;;;;;;;;;;;19.30;99.90;;;;;;5074555;28;20019;-78
2023/07/16 07:21:48;;;;;;;;;;;19.50;99.90;;;;;;5091379;28;19932;-80
2023/07/16 07:24:15;;;;;;;;;;;19.60;99.90;;;;;;5091328;28;19959;-79
2023/07/16 07:26:42;;;;;;;;;;;19.70;99.90;;;;;;5091144;28;19931;-76
2023/07/16 07:29:10;;;;;;;;;;;19.60;99.90;;;;;;5090472;28;19924;-78
2023/07/16 07:31:36;;;;;;;;;;;19.80;99.90;;;;;;5090936;28;19920;-79
2023/07/16 07:34:02;;;;;;;;;;;19.90;99.90;;;;;;5073331;28;20453;-80
2023/07/16 07:36:28;;;;;;;;;;;19.80;99.90;;;;;;5073856;28;19963;-76
2023/07/16 07:38:54;;;;;;;;;;;19.40;99.90;;;;;;5090393;28;19924;-76
2023/07/16 07:41:19;;;;;;;;;;;19.10;99.90;;;;;;5090619;28;19935;-80
2023/07/16 07:43:45;;;;;;;;;;;18.70;99.90;;;;;;5074285;28;19920;-79
2023/07/16 07:46:10;;;;;;;;;;;18.40;99.90;;;;;;5090438;28;19971;-78
2023/07/16 07:48:39;;;;;;;;;;;18.30;99.90;;;;;;5092104;28;19924;-80
2023/07/16 07:51:05;;;;;;;;;;;18.40;99.90;;;;;;5107532;28;19920;-79
2023/07/16 07:53:30;;;;;;;;;;;18.50;99.90;;;;;;5110631;28;20006;-81
2023/07/16 07:55:56;;;;;;;;;;;18.70;99.90;;;;;;5111455;28;19923;-78
2023/07/16 07:58:22;;;;;;;;;;;18.80;99.90;;;;;;5115458;28;20010;-81
2023/07/16 08:00:48;;;;;;;;;;;18.70;99.90;;;;;;5097595;28;19930;-80
2023/07/16 08:03:13;;;;;;;;;;;18.60;99.90;;;;;;5099267;28;20295;-79
2023/07/16 08:05:40;;;;;;;;;;;18.60;99.90;;;;;;5097944;28;19924;-79
2023/07/16 08:08:06;;;;;;;;;;;18.70;99.90;;;;;;5081418;28;19923;-78
2023/07/16 08:10:31;;;;;;;;;;;18.80;99.90;;;;;;5081132;28;19926;-82
2023/07/16 08:13:01;;;;;;;;;;;19.10;99.90;;;;;;5114886;28;19923;-77
2023/07/16 08:15:27;;;;;;;;;;;19.50;99.90;;;;;;5115049;28;19923;-81
2023/07/16 08:17:54;;;;;;;;;;;19.60;99.90;;;;;;5097861;28;19947;-81
2023/07/16 08:20:19;;;;;;;;;;;19.50;99.90;;;;;;5114721;28;19928;-79
2023/07/16 08:22:45;;;;;;;;;;;19.40;99.90;;;;;;5098169;28;19920;-77
2023/07/16 08:25:10;;;;;;;;;;;19.40;99.90;;;;;;5098103;28;19934;-80
2023/07/16 08:27:37;;;;;;;;;;;19.40;99.90;;;;;;5098886;28;19920;-75
2023/07/16 08:30:02;;;;;;;;;;;19.20;99.90;;;;;;5114129;28;19923;-79
2023/07/16 08:32:28;;;;;;;;;;;19.00;99.90;;;;;;5097454;28;19924;-77
2023/07/16 08:34:53;;;;;;;;;;;18.80;99.90;;;;;;5114714;28;19934;-77
2023/07/16 08:37:19;;;;;;;;;;;18.70;99.90;;;;;;5114664;28;19923;-77
2023/07/16 08:39:46;;;;;;;;;;;18.70;99.90;;;;;;5114339;28;20403;-79
2023/07/16 08:42:12;;;;;;;;;;;18.50;99.90;;;;;;5114031;28;20427;-80
2023/07/16 08:44:38;;;;;;;;;;;18.40;99.90;;;;;;5114909;28;19967;-82
2023/07/16 08:47:05;;;;;;;;;;;18.30;99.90;;;;;;5091259;28;19975;-78
2023/07/16 08:49:33;;;;;;;;;;;18.30;99.90;;;;;;5098259;28;19924;-78
2023/07/16 08:52:00;;;;;;;;;;;18.40;99.90;;;;;;5114036;28;19973;-77
2023/07/16 08:54:26;;;;;;;;;;;18.50;99.90;;;;;;5114361;28;20312;-79
2023/07/16 08:56:53;;;;;;;;;;;18.50;99.90;;;;;;5080516;28;19924;-79
2023/07/16 08:59:19;;;;;;;;;;;18.70;99.90;;;;;;5096709;28;19980;-78
2023/07/16 09:01:46;;;;;;;;;;;19.00;99.90;;;;;;5080175;28;19931;-79
2023/07/16 09:04:12;;;;;;;;;;;19.30;99.90;;;;;;5113629;28;19920;-77
2023/07/16 09:06:37;;;;;;;;;;;19.60;99.90;;;;;;5115690;28;19923;-80
2023/07/16 09:09:03;;;;;;;;;;;19.90;99.90;;;;;;5095976;28;20011;-82
2023/07/16 09:11:29;;;;;;;;;;;20.30;99.90;;;;;;5113717;28;19919;-81
2023/07/16 09:13:54;;;;;;;;;;;20.60;99.90;;;;;;5096908;28;19923;-78
2023/07/16 09:16:20;;;;;;;;;;;20.70;99.90;;;;;;5113576;28;19923;-79
2023/07/16 09:18:46;;;;;;;;;;;20.80;99.90;;;;;;5114009;28;19928;-80
2023/07/16 09:21:12;;;;;;;;;;;21.00;99.90;;;;;;5113697;28;19998;-77
2023/07/16 09:23:41;;;;;;;;;;;21.00;99.90;;;;;;5096641;28;19924;-81
2023/07/16 09:26:07;;;;;;;;;;;20.90;99.90;;;;;;5096356;28;20311;-81
2023/07/16 09:28:33;;;;;;;;;;;20.80;99.90;;;;;;5096586;28;19919;-78
2023/07/16 09:31:08;;;;;;;;;;;20.70;99.90;;;;;;5114243;28;19966;-78
2023/07/16 09:33:33;;;;;;;;;;;20.70;99.90;;;;;;5114259;28;20344;-77
2023/07/16 09:36:00;;;;;;;;;;;20.60;99.90;;;;;;5113397;28;19985;-79
2023/07/16 09:38:26;;;;;;;;;;;20.60;99.90;;;;;;5113965;28;19971;-80
2023/07/16 09:40:52;;;;;;;;;;;20.70;99.90;;;;;;5096439;28;19923;-79
2023/07/16 09:43:18;;;;;;;;;;;20.90;99.90;;;;;;5112943;28;19935;-82
2023/07/16 09:45:45;;;;;;;;;;;21.20;99.90;;;;;;5096537;28;19927;-78
2023/07/16 09:48:14;;;;;;;;;;;21.30;99.90;;;;;;5113731;28;19942;-75
2023/07/16 09:50:42;;;;;;;;;;;21.50;99.90;;;;;;5095713;28;19924;-77
2023/07/16 09:53:08;;;;;;;;;;;21.70;99.90;;;;;;5095994;28;19927;-80
2023/07/16 09:55:34;;;;;;;;;;;22.10;99.90;;;;;;5114854;28;20456;-80
2023/07/16 09:58:01;;;;;;;;;;;22.30;99.90;;;;;;5113217;28;19927;-83
2023/07/16 10:00:27;;;;;;;;;;;22.10;99.90;;;;;;5095855;28;19990;-76
2023/07/16 10:02:54;;;;;;;;;;;21.80;99.90;;;;;;5096479;28;19930;-80
2023/07/16 10:05:26;;;;;;;;;;;21.50;99.90;;;;;;5113054;28;19927;-81
2023/07/16 10:07:53;;;;;;;;;;;21.40;99.90;;;;;;5113245;28;20318;-81
2023/07/16 10:10:19;;;;;;;;;;;21.50;99.90;;;;;;5113122;28;19924;-77
2023/07/16 10:13:03;;;;;;;;;;;21.70;99.90;;;;;;5113877;28;19965;-79
2023/07/16 10:15:29;;;;;;;;;;;21.70;99.90;;;;;;5112834;28;19934;-78
2023/07/16 10:17:55;;;;;;;;;;;21.50;99.90;;;;;;5095671;28;19993;-77
2023/07/16 10:20:30;;;;;;;;;;;21.50;99.90;;;;;;5094153;28;19946;-82
2023/07/16 10:22:55;;;;;;;;;;;21.50;99.90;;;;;;5095620;28;19927;-78
2023/07/16 10:25:22;;;;;;;;;;;21.50;99.90;;;;;;5112135;28;19924;-82
2023/07/16 10:27:49;;;;;;;;;;;21.50;99.90;;;;;;5112319;28;19927;-82
2023/07/16 10:30:21;;;;;;;;;;;21.40;99.90;;;;;;5081411;28;19931;-77
2023/07/16 10:32:47;;;;;;;;;;;21.60;99.90;;;;;;5097753;28;19920;-78
2023/07/16 10:35:12;;;;;;;;;;;21.80;99.90;;;;;;5095533;28;20333;-81
2023/07/16 10:37:38;;;;;;;;;;;21.90;99.90;;;;;;5113225;28;19935;-79
2023/07/16 10:40:04;;;;;;;;;;;21.90;99.90;;;;;;5112713;28;20284;-76
2023/07/16 10:42:36;;;;;;;;;;;21.80;99.90;;;;;;5112134;28;20292;-81
2023/07/16 10:45:03;;;;;;;;;;;21.60;99.90;;;;;;5114284;28;19923;-83
2023/07/16 10:47:33;;;;;;;;;;;21.30;99.90;;;;;;5095683;28;19984;-84
2023/07/16 10:50:05;;;;;;;;;;;21.00;99.90;;;;;;5113592;28;19924;-82
2023/07/16 10:52:31;;;;;;;;;;;20.80;99.90;;;;;;5094794;28;19926;-82
2023/07/16 10:54:57;;;;;;;;;;;20.90;99.90;;;;;;5111848;28;19924;-82
2023/07/16 10:57:27;;;;;;;;;;;21.30;99.90;;;;;;5111615;28;19934;-82
2023/07/16 10:59:53;;;;;;;;;;;21.80;99.90;;;;;;5095149;28;19924;-77
2023/07/16 11:02:20;;;;;;;;;;;22.00;99.90;;;;;;5094844;28;19981;-84
2023/07/16 11:04:47;;;;;;;;;;;22.10;99.90;;;;;;5111934;28;19928;-77
2023/07/16 11:07:13;;;;;;;;;;;22.10;99.90;;;;;;5111877;28;19924;-76
2023/07/16 11:09:44;;;;;;;;;;;22.20;99.90;;;;;;5113185;28;19981;-75
2023/07/16 11:12:11;;;;;;;;;;;22.30;99.90;;;;;;5111854;28;19919;-76
2023/07/16 11:14:36;;;;;;;;;;;22.40;99.90;;;;;;5095416;28;19977;-84
2023/07/16 11:17:07;;;;;;;;;;;22.40;99.90;;;;;;5112329;28;20452;-80
2023/07/16 11:19:33;;;;;;;;;;;22.40;99.90;;;;;;5112083;28;20418;-79
2023/07/16 11:22:00;;;;;;;;;;;22.30;99.90;;;;;;5111855;28;19932;-78
2023/07/16 11:24:27;;;;;;;;;;;22.40;99.90;;;;;;5111345;28;19959;-84
2023/07/16 11:26:59;;;;;;;;;;;22.40;99.90;;;;;;5111705;28;19924;-79
2023/07/16 11:29:25;;;;;;;;;;;22.40;99.90;;;;;;5111358;28;19924;-80
2023/07/16 11:31:51;;;;;;;;;;;22.30;99.90;;;;;;5094470;28;20393;-80
2023/07/16 11:34:17;;;;;;;;;;;22.00;99.90;;;;;;5111212;28;19924;-81
2023/07/16 11:36:42;;;;;;;;;;;21.70;99.90;;;;;;5094140;28;19968;-79
2023/07/16 11:39:10;;;;;;;;;;;21.40;99.90;;;;;;5112007;28;19930;-78
2023/07/16 11:41:36;;;;;;;;;;;21.20;99.90;;;;;;5110600;28;19924;-75
2023/07/16 11:44:07;;;;;;;;;;;21.10;99.90;;;;;;5078677;28;20192;-80
2023/07/16 11:46:33;;;;;;;;;;;21.30;99.90;;;;;;5111735;28;19924;-76
2023/07/16 11:48:59;;;;;;;;;;;21.50;99.90;;;;;;5094226;28;19931;-82
2023/07/16 11:51:24;;;;;;;;;;;21.50;99.90;;;;;;5110919;28;20024;-83
2023/07/16 11:53:50;;;;;;;;;;;21.50;99.90;;;;;;5111625;28;19937;-76
2023/07/16 11:56:15;;;;;;;;;;;21.30;99.90;;;;;;5093878;28;19919;-78
2023/07/16 11:58:41;;;;;;;;;;;21.10;99.90;;;;;;5094467;28;19920;-82
2023/07/16 12:01:07;;;;;;;;;;;20.70;99.90;;;;;;5094770;28;20344;-79
2023/07/16 12:03:32;;;;;;;;;;;20.50;99.90;;;;;;5096107;28;20431;-83
2023/07/16 12:05:58;;;;;;;;;;;20.40;99.90;;;;;;5111293;28;19931;-81
2023/07/16 12:08:23;;;;;;;;;;;20.30;99.90;;;;;;5110932;28;20277;-80
2023/07/16 12:10:49;;;;;;;;;;;20.30;99.90;;;;;;5111053;28;19986;-80
2023/07/16 12:13:15;;;;;;;;;;;20.10;99.90;;;;;;5110448;28;19920;-81
2023/07/16 12:15:40;;;;;;;;;;;20.20;99.90;;;;;;5111101;28;19920;-84
2023/07/16 12:18:06;;;;;;;;;;;20.40;99.90;;;;;;5094586;28;19928;-80
2023/07/16 12:20:31;;;;;;;;;;;20.90;99.90;;;;;;5093615;28;20369;-82
2023/07/16 12:22:57;;;;;;;;;;;21.30;99.90;;;;;;5111261;28;19927;-81
2023/07/16 12:25:23;;;;;;;;;;;21.60;99.90;;;;;;5110355;28;20265;-79
2023/07/16 12:27:48;;;;;;;;;;;21.80;99.90;;;;;;5094126;28;19954;-79
2023/07/16 12:30:14;;;;;;;;;;;21.70;99.90;;;;;;5094258;28;19924;-81
2023/07/16 12:32:40;;;;;;;;;;;21.30;99.90;;;;;;5094005;28;20295;-79
2023/07/16 12:35:07;;;;;;;;;;;21.00;99.90;;;;;;5094601;28;20509;-82
2023/07/16 12:37:32;;;;;;;;;;;20.80;99.90;;;;;;5110698;28;19927;-82
2023/07/16 12:39:58;;;;;;;;;;;20.80;99.90;;;;;;5112837;28;19923;-76
2023/07/16 12:42:24;;;;;;;;;;;21.00;99.90;;;;;;5076832;28;19924;-80
2023/07/16 12:44:50;;;;;;;;;;;21.10;99.90;;;;;;5096936;28;19973;-81
2023/07/16 12:47:21;;;;;;;;;;;21.20;99.90;;;;;;5098784;28;19924;-80
2023/07/16 12:49:47;;;;;;;;;;;21.20;99.90;;;;;;5097619;28;19920;-78
2023/07/16 12:52:12;;;;;;;;;;;21.20;99.90;;;;;;5098185;28;20246;-81
2023/07/16 12:54:38;;;;;;;;;;;21.20;99.90;;;;;;5114504;28;20032;-82
2023/07/16 12:57:04;;;;;;;;;;;21.20;99.90;;;;;;5114202;28;20014;-84
2023/07/16 12:59:29;;;;;;;;;;;21.40;99.90;;;;;;5114031;28;19938;-80
2023/07/16 13:01:55;;;;;;;;;;;21.40;99.90;;;;;;5097088;28;19943;-82
2023/07/16 13:04:21;;;;;;;;;;;21.40;99.90;;;;;;5113978;28;19930;-81
2023/07/16 13:06:47;;;;;;;;;;;21.20;99.90;;;;;;5114617;28;20281;-82
2023/07/16 13:09:13;;;;;;;;;;;21.00;99.90;;;;;;5097318;28;19919;-81
2023/07/16 13:11:39;;;;;;;;;;;20.80;99.90;;;;;;5113756;28;19942;-84
2023/07/16 13:14:05;;;;;;;;;;;20.70;99.90;;;;;;5097402;28;19919;-82
2023/07/16 13:16:30;;;;;;;;;;;20.60;99.90;;;;;;5114191;28;19920;-81
2023/07/16 13:18:56;;;;;;;;;;;20.70;99.90;;;;;;5114252;28;20365;-80
2023/07/16 13:21:21;;;;;;;;;;;20.80;99.90;;;;;;5080075;28;19928;-80
2023/07/16 13:23:47;;;;;;;;;;;20.80;99.90;;;;;;5097247;28;20416;-76
2023/07/16 13:26:12;;;;;;;;;;;20.80;99.90;;;;;;5114162;28;20057;-84
2023/07/16 13:28:38;;;;;;;;;;;20.70;99.90;;;;;;5079654;28;19973;-81
2023/07/16 13:31:04;;;;;;;;;;;21.00;99.90;;;;;;5114642;28;20006;-81
2023/07/16 13:33:29;;;;;;;;;;;21.50;99.90;;;;;;5113597;28;19919;-85
2023/07/16 13:35:55;;;;;;;;;;;22.00;99.90;;;;;;5113870;28;20012;-84
2023/07/16 13:38:20;;;;;;;;;;;22.20;99.90;;;;;;5113875;28;19927;-79
2023/07/16 13:40:46;;;;;;;;;;;22.50;99.90;;;;;;5096200;28;20018;-82
2023/07/16 13:43:12;;;;;;;;;;;22.80;99.90;;;;;;5096295;28;19969;-83
2023/07/16 13:45:38;;;;;;;;;;;23.10;99.90;;;;;;5113216;28;20535;-81
2023/07/16 13:48:04;;;;;;;;;;;23.10;99.90;;;;;;5113221;28;20326;-78
2023/07/16 13:50:29;;;;;;;;;;;23.20;99.90;;;;;;5112538;28;19926;-83
2023/07/16 13:52:55;;;;;;;;;;;23.50;99.90;;;;;;5112896;28;19949;-80
2023/07/16 13:55:23;;;;;;;;;;;24.00;99.90;;;;;;5114790;28;19923;-79
2023/07/16 13:57:49;;;;;;;;;;;24.40;99.40;;;;;;5114061;28;19919;-83
2023/07/16 14:00:16;;;;;;;;;;;24.40;98.70;;;;;;5113517;28;19920;-78
2023/07/16 14:02:42;;;;;;;;;;;24.30;98.50;;;;;;5095911;28;19972;-82
2023/07/16 14:05:08;;;;;;;;;;;23.90;97.00;;;;;;5113126;28;19971;-76
2023/07/16 14:07:34;;;;;;;;;;;23.70;97.60;;;;;;5078874;28;19931;-82
2023/07/16 14:09:59;;;;;;;;;;;23.60;97.40;;;;;;5112737;28;19920;-82